Terminal Aerodrome Forecast
Issued by NWS

Home | Current Version | Previous Version | Graphics & Text | Print | Product List | Glossary On
Versions: 1 2 3 4 5 6 7 8 9 10 11 12 13 14 15
000
FTUS43 KICT 212100 AAB
TAFCNU
TAF AMD
KCNU 212118Z 2121/2218 26007KT P6SM BKN040
     FM212230 26004KT P6SM -TSRA BKN040CB
     FM212345 36008KT P6SM BKN060
     FM221500 04008KT P6SM SKC=

USA.gov is the U.S. government's official web portal to all federal, state and local government web resources and services.